Tiempo atmosférico en la estación meteorológica de Motril, Granada (3 m.)



Fecha
DESCASC
Temp. máxima en grados centígrados (hora)
DESCASC
Temp. mínima en grados centígrados (hora)
DESCASC
Temp. media en grados centígrados
DESCASC
Racha de viento máxima en m/sg (hora)
DESCASC
Velocidad máxima media en intervalos de 10 minutos(hora)
DESCASC
Precipitaciones diarias en mm
DESCASC
Precipitaciones de 00:00 a 06:00 en mm
DESCASC
Precipitaciones de 06:00 a 12:00 en mm
DESCASC
Precipitaciones de 12:00 a 18:00 en mm
DESCASC
Precipitaciones de 18:00 a 24:00 en mm
DESCASC
13-02-2020 -- (--) -- (--) -- 11.11 (15:10) 3.06 (14:00) -- 0 0 -- 0
12-02-2020 22 (12:00) 13.1 (00:40) 17.6 10.56 (12:20) 6.67 (12:30) 0 0 0 0 0
11-02-2020 19.7 (10:30) 9.1 (08:20) 14.4 7.78 (17:00) 3.33 (17:10) 0 0 0 0 0
10-02-2020 22.3 (12:20) 9.7 (00:00) 16 5 (13:20) 3.33 (14:10) -- 0 0 0 --
09-02-2020 21.7 (10:30) 10.1 (00:00) 15.9 7.78 (14:30) 5.83 (14:00) 0 0 0 0 0
08-02-2020 19.6 (10:50) 11.5 (00:00) 15.6 6.11 (17:00) 3.33 (13:40) 0 0 0 0 0
07-02-2020 16.5 (15:00) 10.8 (00:00) 13.7 6.39 (19:20) 3.33 (19:20) 0 0 0 0 0
06-02-2020 17.7 (10:30) 7.2 (00:00) 12.5 13.61 (11:30) 12.5 (11:20) 0 0 0 0 0
05-02-2020 19.3 (12:00) 9.2 (00:00) 14.2 12.22 (13:50) 7.78 (14:00) 0 0 0 0 0
04-02-2020 14.8 (16:20) 9 (00:00) 11.9 3.33 (16:30) 1.94 (14:30) 0.1 0.1 0 0 0
03-02-2020 23.6 (11:10) 11.1 (07:20) 17.4 4.17 (14:00) 3.06 (14:40) 0 0 0 0 0
02-02-2020 22.4 (11:10) 11.3 (00:00) 16.8 3.61 (15:30) 2.5 (15:30) 0 0 0 0 0
01-02-2020 22 (16:20) 12.1 (00:00) 17.1 13.61 (02:30) 2.78 (18:40) 0 0 0 0 0
31-01-2020 20.9 (10:10) 12.9 (00:00) 16.9 6.67 (04:00) 4.44 (04:00) 0 0 0 0 0
30-01-2020 21 (10:50) 9 (00:00) 15 10.83 (16:10) 5.83 (20:00) 0 0 0 0 0
29-01-2020 19.6 (15:00) 9.2 (00:00) 14.4 3.89 (18:30) 2.22 (15:50) 0 0 0 0 0
28-01-2020 19.4 (14:00) 11.9 (00:00) 15.6 8.33 (05:10) 3.89 (05:20) 0 0 0 0 0
27-01-2020 18.2 (10:20) 10.6 (00:00) 14.4 11.39 (00:20) 6.67 (00:30) 0 0 0 0 0
26-01-2020 19.3 (17:00) 9.3 (00:00) 14.3 12.22 (12:00) 6.11 (14:20) 0 0 0 0 0
25-01-2020 -- (--) -- (--) -- -- (--) -- (--) -- -- -- 3.1 0.6
24-01-2020 19.8 (11:30) 10.6 (00:00) 15.2 8.33 (15:40) 19.72 (23:40) 2.8 2.8 0 0 0
23-01-2020 17.5 (13:50) 9.6 (00:00) 13.6 10.28 (16:20) 6.67 (12:20) 0 0 0 0 0
22-01-2020 15.4 (10:50) 8.9 (00:00) 12.1 9.72 (15:40) 6.67 (15:50) 19.8 2.8 0 4.9 12.1

Gráficas

Temp. máximas Temp. mínimas Temp. medias Precipitaciones Rachas de viento máximas Velocidades máximas media en intervalos de 10 minutos

Datos horarios

Fecha y hora oficial Temperatura (ºC) Velocidad del viento (km/h) Dirección del viento Racha (km/h) Dirección de racha Precipitación (mm) Presión (hPa) Tendencia (hPa) Humedad (%)
2020-02-17 09:00:00 13.1 3 Norte 9 Norte 0 1026.3 1.2 96
2020-02-17 08:00:00 12.7 3 Noroeste 9 Oeste 0 1025.4 0 96
2020-02-17 07:00:00 12.7 3 Noroeste 7 Noroeste 0 1025.2 -0.2 96
2020-02-17 06:00:00 12.9 3 Norte 7 Norte 0 1025.1 -0.4 96
2020-02-17 05:00:00 12.7 4 Norte 8 Norte 0 1025.4 -0.8 96
2020-02-17 04:00:00 12.8 2 Noroeste 8 Noroeste 0 1025.4 -0.9 95
2020-02-17 03:00:00 13.3 4 Noroeste 9 Noroeste 0 1025.5 -0.9 94
2020-02-17 02:00:00 13.6 4 Noroeste 8 Noroeste 0 1026.2 -0.2 94
2020-02-17 01:00:00 14 5 Oeste 10 Noroeste 0 1026.3 -0.1 93
2020-02-17 00:00:00 14.3 3 Noroeste 9 Noroeste 0 1026.4 0.1 91
2020-02-16 23:00:00 14.4 4 Noroeste 14 Sudoeste 0 1026.4 0.1 91
2020-02-16 22:00:00 14.4 4 Sudoeste 8 Oeste 0 1026.4 0.5 90
2020-02-16 21:00:00 14.4 4 Oeste 12 Sudoeste 0 1026.3 0.8 90
2020-02-16 20:00:00 14.3 4 Sudoeste 11 Sudoeste 0 1026.3 0.8 90
2020-02-16 19:00:00 14.7 3 Sudeste 13 Sudoeste 0 1025.9 0.4 88
2020-02-16 18:00:00 14.9 4 Sudoeste 13 Sur 0 1025.5 -0.5 86
2020-02-16 17:00:00 14.8 8 Sur 17 Sur 0 1025.5 -1.4 85
2020-02-16 16:00:00 15.2 7 Sur 15 Sudoeste 0 1025.5 -1.9 83
2020-02-16 15:00:00 15.3 8 Sudoeste 14 Sudoeste 0 1026 -2 81
2020-02-16 14:00:00 15.7 6 Sur 16 Sudoeste 0 1026.9 -1 80
2020-02-16 13:00:00 15.5 7 Sudoeste 16 Sur 0 1027.4 -0.2 77
2020-02-16 12:00:00 15.7 6 Sur 12 Sur 0 1028 0.8 77
2020-02-16 11:00:00 15.7 0 Calma 6 Nordeste 0 1027.9 1.2 77
2020-02-16 10:00:00 13.9 4 Norte 7 Norte 0 1027.6 1.1 88
2020-02-16 09:00:00 13.1 0 Calma 8 Noroeste 0 1027.2 0.6 95
2020-02-16 08:00:00 12.6 3 Noroeste 6 Noroeste 0 1026.7 0.6 95
2020-02-16 07:00:00 12 4 Oeste 7 Noroeste 0 1026.5 -0.2 96
2020-02-16 06:00:00 10.9 3 Norte 6 Norte 0 1026.6 -0.8 99
2020-02-16 05:00:00 11.5 2 Norte 6 Nordeste 0 1026.1 -1.1 99
2020-02-16 04:00:00 12.4 2 Norte 5 Norte 0 1026.7 -0.2 98
2020-02-16 03:00:00 12.5 2 Norte 8 Norte 0 1027.4 0.5 98
2020-02-16 02:00:00 11.8 4 Norte 8 Nordeste 0 1027.2 -0.2 99
2020-02-16 01:00:00 13.2 4 Nordeste 8 Este 0 1026.9 -0.2 98
2020-02-16 00:00:00 14.1 3 Nordeste 8 Norte 0 1026.9 0.4 97
2020-02-15 23:00:00 13 3 Nordeste 7 Nordeste 0 1027.4 1.6 98
2020-02-15 22:00:00 12.8 0 Calma 4 Este 0 1027.1 2 97
2020-02-15 21:00:00 13.7 0 Calma -- -- -- 1026.5 1.6 95
2020-02-15 20:00:00 14.9 0 Calma 5 Sur 0 1025.8 1.2 91
2020-02-15 19:00:00 15.4 0 Calma 7 Sur 0 1025.1 0.6 87
2020-02-15 18:00:00 15.9 6 Sur 10 Sudoeste 0 1024.9 0.4 84
2020-02-15 17:00:00 16.8 6 Sur 11 Sudoeste 0 1024.6 -0.6 80
2020-02-15 16:00:00 17.1 7 Sur 13 Sur 0 1024.5 -1.6 77
2020-02-15 15:00:00 16.5 8 Sur 12 Sur 0 1024.5 -1.8 81
2020-02-15 14:00:00 17.2 6 Sur 12 Sur 0 1025.2 -0.8 77
2020-02-15 13:00:00 17.3 6 Sur 13 Sudoeste 0 1026.1 0.2 78
2020-02-15 12:00:00 16.7 6 Sur 11 Sur 0 1026.3 1.1 80
2020-02-15 11:00:00 18.4 4 Sur 7 Sur 0 1026 1.6 74
2020-02-15 10:00:00 16 3 Sur 7 Sudoeste 0 1025.9 2.4 85
2020-02-15 09:00:00 13.5 0 Calma 12 Este 0 1025.2 1.9 90
2020-02-15 08:00:00 11.6 7 Nordeste 10 Nordeste 0 1024.4 1.1 85
2020-02-15 07:00:00 10.7 0 Calma 5 Noroeste 0 1023.5 0.5 91
2020-02-15 06:00:00 11.2 3 Norte 6 Nordeste 0 1023.3 0 89
2020-02-15 05:00:00 11 0 Calma 3 Este 0 1023.3 -0.3 90
2020-02-15 04:00:00 11 2 Nordeste 7 Nordeste 0 1023 -1.1 89
2020-02-15 03:00:00 12 5 Nordeste 7 Nordeste 0 1023.3 -0.6 90
2020-02-15 02:00:00 11.8 0 Calma 6 Nordeste 0 1023.6 -0.4 93
2020-02-15 01:00:00 11.6 0 Calma 5 Norte 0 1024.1 0.2 96
2020-02-15 00:00:00 12.4 3 Noroeste 5 Norte 0 1023.9 0.7 95
2020-02-14 23:00:00 12.3 0 Calma 9 Nordeste 0 1024 0.9 99
2020-02-14 22:00:00 12.8 3 Norte 4 Norte 0 1023.9 1.5 99
2020-02-14 21:00:00 13.8 0 Calma 3 Noroeste 0 1023.2 1 99
2020-02-14 20:00:00 14.4 3 Norte 6 Norte 0 1023.1 1.2 99
2020-02-14 19:00:00 15.6 3 Sur 4 Sur 0 1022.4 0.2 95
2020-02-14 18:00:00 16.9 3 Sudeste 7 Sur 0 1022.2 -0.3 89
2020-02-14 17:00:00 17.1 6 Sur 10 Sur 0 1021.9 -1.4 88
2020-02-14 16:00:00 17.3 6 Sudeste 11 Sudeste 0 1022.2 -2.1 85
2020-02-14 15:00:00 17.5 7 Sudeste 14 Sur 0 1022.5 -2 85
2020-02-14 14:00:00 16.6 5 Sur 15 Sudeste 0 1023.3 -1.6 88
2020-02-14 13:00:00 15.7 12 Sur 22 Sudeste 0 1024.3 -0.3 90
2020-02-14 12:00:00 16.4 16 Sudeste 22 Sudeste 0 1024.5 0.5 90
2020-02-14 11:00:00 16.7 12 Sudeste 16 Sudeste 0 1024.9 2 84
2020-02-14 10:00:00 19.5 0 Calma 6 Norte 0 1024.6 2 69
2020-02-14 09:00:00 12.9 5 Norte 9 Este 0 1024 1.4 84
2020-02-14 08:00:00 11.4 2 Nordeste 4 Este 0 1022.9 0.5 90
2020-02-14 07:00:00 11.7 0 Calma 8 Nordeste 0 1022.6 0 89
2020-02-14 06:00:00 11.5 3 Nordeste 6 Norte 0 1022.6 -0.2 93
2020-02-14 05:00:00 12.3 6 Norte 10 Norte 0 1022.4 -0.4 91
2020-02-14 04:00:00 12.4 6 Norte 7 Norte 0 1022.6 -0.4 90
2020-02-14 03:00:00 12.1 0 Calma 11 Este 0 1022.8 -0.5 93
2020-02-14 02:00:00 13.4 6 Sudeste 9 Sudeste 0 1022.8 -0.5 92
2020-02-14 01:00:00 14.3 5 Norte 11 Norte 0 1023 -0.1 89
2020-02-14 00:00:00 12.9 3 Nordeste 9 Norte 0 1023.3 0.8 91
2020-02-13 23:00:00 14.3 5 Nordeste 9 Norte 0 1023.3 1 89
2020-02-13 22:00:00 13.6 5 Nordeste 9 Norte 0 1023.1 1.4 92
2020-02-13 21:00:00 14.7 4 Nordeste 8 Nordeste 0 1022.5 1 89
2020-02-13 20:00:00 15 4 Norte 18 Oeste 0 1022.3 0.9 88
2020-02-13 19:00:00 16.3 8 Oeste 21 Sudoeste 0 1021.7 0.4 84
2020-02-13 18:00:00 17.1 11 Oeste 23 Sudoeste 0 1021.5 0.2 80
2020-02-13 17:00:00 17.4 8 Sudoeste 18 Sudoeste 0 1021.4 -0.6 77
2020-02-13 16:00:00 17.4 8 Sur 40 Sudoeste 0 1021.3 -1.5 80
2020-02-13 15:00:00 17.8 8 Oeste 18 Sudoeste 0 1021.3 -2.2 76
2020-02-13 14:00:00 16.6 11 Sudoeste -- -- -- 1022 -1.4 85
2020-02-13 13:00:00 16.7 9 Sur 14 Sudoeste 0 1022.8 -0.4 84
2020-02-13 12:00:00 16.5 5 Sudoeste 12 Sudoeste 0 1023.5 0.6 77
2020-02-13 11:00:00 19.2 0 Calma 5 Sudeste 0 1023.4 1.2 71
2020-02-13 10:00:00 14.5 3 Este 5 Nordeste 0 1023.2 1.4 90
2020-02-13 09:00:00 12.3 0 Calma -- -- -- 1022.9 1.5 96
2020-02-13 08:00:00 10.8 3 Noroeste 9 Norte 0 1022.2 1.1 95
2020-02-13 07:00:00 11.4 2 Noroeste 8 Norte 0 1021.8 0.3 94
2020-02-13 06:00:00 11.6 0 Calma 7 Nordeste 0 1021.4 -0.6 93
2020-02-13 05:00:00 11.8 6 Nordeste 9 Nordeste 0 1021.1 -1.2 93
2020-02-13 04:00:00 12.2 4 Nordeste 8 Nordeste 0 1021.5 -1 94
2020-02-13 03:00:00 11.9 0 Calma 4 Nordeste 0 1022 -0.6 95
2020-02-13 02:00:00 12.3 2 Nordeste 6 Nordeste 0 1022.3 -0.2 94
2020-02-13 01:00:00 13.5 3 Norte 7 Norte 0 1022.5 0 94
2020-02-13 00:00:00 13.3 2 Nordeste 8 Nordeste 0 1022.6 0.5 91
2020-02-12 23:00:00 13.4 3 Nordeste 7 Nordeste 0 1022.5 0.8 93
2020-02-12 22:00:00 13.6 0 Calma 5 Nordeste 0 1022.5 1.2 92
2020-02-12 21:00:00 14.7 4 Nordeste 7 Norte 0 1022.1 1.4 89
2020-02-12 20:00:00 15.2 4 Norte 12 Sudeste 0 1021.7 1 87
2020-02-12 19:00:00 16 8 Sudeste 14 Sudeste 0 1021.3 0.6 84
2020-02-12 18:00:00 17.2 7 Sudeste 21 Sudeste 0 1020.7 -0.3 80
2020-02-12 17:00:00 16.7 13 Sudeste 22 Sudeste 0 1020.7 -1.1 89
2020-02-12 16:00:00 16.7 18 Sudeste 24 Sudeste 0 1020.7 -1.9 88
2020-02-12 15:00:00 17 20 Sudeste 28 Sudeste 0 1021 -1.5 83
2020-02-12 14:00:00 19.3 18 Sudeste 30 Este 0 1021.8 -0.3 68
2020-02-12 13:00:00 19.8 18 Este 38 Este 0 1022.6 1.3 63
2020-02-12 12:00:00 20.7 11 Este 28 Este 0 1022.5 2.3 54
2020-02-12 11:00:00 17.5 20 Sudeste 26 Sudeste 0 1022.1 1.9 71
2020-02-12 10:00:00 17.8 10 Sudeste 33 Norte 0 1021.3 0.9 68
2020-02-12 09:00:00 18.5 15 Norte 36 Nordeste 0 1020.2 -0.4 61
2020-02-12 08:00:00 17.3 14 Norte 37 Norte 0 1020.2 -1 64
2020-02-12 07:00:00 17.3 13 Norte 36 Noroeste 0 1020.4 -0.5 66
2020-02-12 06:00:00 14.2 2 Oeste 9 Oeste 0 1020.6 0.4 99
2020-02-12 05:00:00 14.8 3 Nordeste 17 Sudoeste 0 1021.2 0.7 99
2020-02-12 04:00:00 15.9 10 Sudoeste 22 Sudoeste 0 1020.9 -0.6 98
2020-02-12 03:00:00 17.4 5 Sudoeste 17 Oeste 0 1020.2 -1.7 67
2020-02-12 02:00:00 17.2 3 Oeste 10 Oeste 0 1020.5 -1.8 77
2020-02-12 01:00:00 14.1 2 Norte 8 Norte 0 1021.5 -0.8 96
2020-02-12 00:00:00 14 3 Norte 8 Nordeste 0 1021.9 0.1 94
2020-02-11 23:00:00 14.4 3 Nordeste 8 Norte 0 1022.3 0.8 92
2020-02-11 22:00:00 15.5 2 Noroeste 9 Noroeste 0 1022.3 1 90
2020-02-11 21:00:00 15.4 5 Noroeste 13 Oeste 0 1021.8 0.7 84
2020-02-11 20:00:00 16.1 0 Calma 18 Oeste 0 1021.5 0 80
2020-02-11 19:00:00 17.4 9 Oeste 20 Oeste 0 1021.3 -0.5 75
2020-02-11 18:00:00 19 12 Oeste 25 Sudoeste 0 1021.1 -1.5 70
2020-02-11 17:00:00 19 12 Oeste 28 Oeste 0 1021.5 -2.2 69
2020-02-11 16:00:00 17.8 10 Sudoeste 24 Oeste 0 1021.8 -3.1 73
2020-02-11 15:00:00 17.7 8 Sudoeste 19 Sudoeste 0 1022.6 -3.4 76
2020-02-11 14:00:00 18.4 8 Sudoeste 20 Sudoeste 0 1023.7 -2.5 71
2020-02-11 13:00:00 17.5 10 Oeste 19 Oeste 0 1024.9 -1.2 68
2020-02-11 12:00:00 17.6 7 Oeste 16 Oeste 0 1026 0.4 66
2020-02-11 11:00:00 16.2 8 Sudoeste 14 Sudoeste 0 1026.2 0.8 64
2020-02-11 10:00:00 18.7 0 Calma 4 Este 0 1026.1 0.9 58
2020-02-11 09:00:00 13 0 Calma 6 Norte 0 1025.6 0.2 77
2020-02-11 08:00:00 9.8 3 Nordeste 6 Norte 0 1025.4 -0.2 81
2020-02-11 07:00:00 10.5 4 Sudoeste 10 Nordeste 0 1025.2 -1.1 83
2020-02-11 06:00:00 11.5 2 Sudoeste 9 Oeste 0 1025.4 -1.3 77
2020-02-11 05:00:00 10.2 3 Nordeste 9 Oeste 0 1025.6 -1.7 89
2020-02-11 04:00:00 11.1 0 Calma 7 Nordeste 0 1026.3 -1.5 84
2020-02-11 03:00:00 10.6 5 Nordeste 7 Nordeste 0 1026.7 -1.4 89
2020-02-11 02:00:00 11.8 2 Sudoeste 10 Norte 0 1027.3 -1.1 92
2020-02-11 01:00:00 10.1 6 Norte 10 Norte 0 1027.8 -0.6 91
2020-02-11 00:00:00 12.1 4 Noroeste 7 Noroeste 0 1028.1 -0.3 94
2020-02-10 23:00:00 11.6 0 Calma 8 Oeste 0 1028.4 -- 92
2020-02-10 22:00:00 12.6 0 Calma 6 Norte 0 1028.4 0.2 96
2020-02-10 21:00:00 13.4 0 Calma -- -- -- 1028.4 0 95
2020-02-10 20:00:00 -- -- -- -- -- -- -- -- --
2020-02-10 19:00:00 15.4 4 Oeste 11 Oeste 0 1028.2 -1.1 87
2020-02-10 18:00:00 16.7 6 Oeste 12 Sudoeste 0 1028.4 -1.6 77
2020-02-10 17:00:00 17.1 6 Sudoeste 13 Sur 0 1028.9 -2 76
2020-02-10 16:00:00 17.1 8 Sudoeste 15 Sudoeste 0 1029.3 -2.1 77
2020-02-10 15:00:00 17.4 6 Sur 16 Sur 0 1030 -2.2 77
2020-02-10 14:00:00 17.4 10 Sur 18 Sudeste 0 1030.9 -1.3 76
2020-02-10 13:00:00 18.8 7 Sur 15 Sur 0 1031.4 -0.6 69
2020-02-10 12:00:00 20.5 5 Sudeste 6 Sudeste 0 1032.2 0.5 56
2020-02-10 11:00:00 20.1 4 Sudeste 7 Oeste 0 1032.2 1.2 60
2020-02-10 10:00:00 18.4 0 Calma 4 Sudeste 0 1032 1.2 64
2020-02-10 09:00:00 14 0 Calma 6 Norte 0 1031.7 1 78
2020-02-10 08:00:00 9.8 3 Noroeste 9 Nordeste 0 1031 0.4 86
2020-02-10 07:00:00 10.7 3 Nordeste 6 Nordeste 0 1030.8 -0.1 91
2020-02-10 06:00:00 11.1 6 Nordeste 9 Nordeste 0 1030.7 -0.6 88
2020-02-10 05:00:00 11.6 7 Nordeste 10 Nordeste 0 1030.6 -0.8 84
2020-02-10 04:00:00 10.9 6 Norte 10 Norte 0 1030.9 -0.5 88
2020-02-10 03:00:00 11.1 3 Nordeste 9 Nordeste 0 1031.3 -0.1 89
2020-02-10 02:00:00 11.3 0 Calma 5 Norte 0 1031.4 0 90
2020-02-10 01:00:00 12.5 0 Calma 10 Norte 0 1031.4 0 85
2020-02-10 00:00:00 13.9 8 Norte 11 Norte 0 1031.4 0.5 80
2020-02-09 23:00:00 13.3 4 Nordeste 8 Norte 0 1031.4 1.2 88
2020-02-09 22:00:00 13.1 5 Nordeste 9 Nordeste 0 1031.4 2.3 90
2020-02-09 21:00:00 13.9 2 Nordeste 9 Noroeste 0 1030.9 2.5 90
2020-02-09 20:00:00 14.5 3 Noroeste 9 Noroeste 0 1030.2 2 89
2020-02-09 19:00:00 15.7 9 Este 22 Sudeste 0 1029.1 0.6 77
2020-02-09 18:00:00 16.4 16 Sudeste 22 Sudeste 0 1028.4 0.1 77
2020-02-09 17:00:00 17.9 13 Sudeste 23 Sudeste 0 1028.2 -0.6 71
2020-02-09 16:00:00 17.9 14 Sudeste 23 Sudeste 0 1028.5 -0.7 73
2020-02-09 15:00:00 19.2 16 Este 65 Sudeste 0 1028.3 -1.3 65
2020-02-09 14:00:00 16.7 21 Sudeste 27 Sudeste 0 1028.8 -0.6 84
2020-02-09 13:00:00 18.2 12 Sudeste 16 Sudeste 0 1029.2 0.2 73
2020-02-09 12:00:00 19.4 6 Sudeste 10 Sudeste 0 1029.6 1.5 63
2020-02-09 11:00:00 18.9 4 Sudoeste 6 Sudoeste 0 1029.4 2.3 60
2020-02-09 10:00:00 19.4 0 Calma 7 Nordeste 0 1029 2.9 61
2020-02-09 09:00:00 12.7 4 Nordeste 8 Norte 0 1028.1 2.7 83
2020-02-09 08:00:00 11.2 3 Norte 10 Norte 0 1027.1 2.1 85
2020-02-09 07:00:00 12.7 0 Calma 8 Norte 0 1026.1 0.6 77
2020-02-09 06:00:00 12.9 0 Calma 12 Nordeste 0 1025.4 0.1 77
2020-02-09 05:00:00 14.5 8 Este 17 Norte 0 1025 -0.6 75
2020-02-09 04:00:00 15.7 5 Sur 22 Este 0 1025.5 -0.5 71
2020-02-09 03:00:00 15.5 6 Este 26 Norte 0 1025.3 -0.6 66
2020-02-09 02:00:00 14.8 3 Noroeste 12 Norte 0 1025.6 0.1 75
2020-02-09 01:00:00 13.5 3 Noroeste 9 Nordeste 0 1026 0.8 89
2020-02-09 00:00:00 14.2 3 Este 11 Sudeste 0 1025.9 1.3 88
2020-02-08 23:00:00 15.3 0 Calma 11 Norte 0 1025.5 1.3 74
2020-02-08 22:00:00 15.4 3 Sudoeste 11 Nordeste 0 1025.2 1.8 85
2020-02-08 21:00:00 14.4 5 Nordeste 10 Este 0 1024.6 1.3 84
2020-02-08 20:00:00 15 5 Nordeste 8 Nordeste 0 1024.2 1 88
2020-02-08 19:00:00 16.2 0 Calma 7 Nordeste 0 1023.4 0.3 83
2020-02-08 18:00:00 17.1 2 Oeste 19 Noroeste 0 1023.3 -0.3 77
2020-02-08 17:00:00 16.9 8 Sudoeste 22 Sudoeste 0 1023.2 -1 77
2020-02-08 16:00:00 16.1 8 Sudoeste 17 Sudoeste 0 1023.1 -1.7 87
2020-02-08 15:00:00 16.3 10 Sudoeste 18 Sur 0 1023.6 -1.6 82
2020-02-08 14:00:00 16.9 7 Sudoeste 18 Sudoeste 0 1024.2 -1.2 80
2020-02-08 13:00:00 17 9 Sur 14 Sur 0 1024.8 -0.5 77
2020-02-08 12:00:00 15.9 10 Sudoeste 14 Sur 0 1025.2 0.5 80
2020-02-08 11:00:00 19.1 6 Sur 12 Sudeste 0 1025.4 1.4 66
2020-02-08 10:00:00 16.5 5 Este 11 Oeste 0 1025.3 1.3 76
2020-02-08 09:00:00 13.5 4 Sudoeste 10 Sudoeste 0 1024.7 1.1 90
2020-02-08 08:00:00 13.4 3 Nordeste 7 Nordeste 0 1024 0.5 91
2020-02-08 07:00:00 12.9 2 Norte 4 Nordeste 0 1024 0.7 90
2020-02-08 06:00:00 12.9 3 Norte 8 Nordeste 0 1023.6 0 89
2020-02-08 05:00:00 11.6 4 Nordeste 9 Oeste 0 1023.5 -0.4 92
2020-02-08 04:00:00 11.7 4 Nordeste 9 Norte 0 1023.3 -0.9 91
2020-02-08 03:00:00 12.9 0 Calma 8 Norte 0 1023.6 -0.5 91
2020-02-08 02:00:00 13.3 4 Nordeste 9 Norte 0 1023.9 0 91
2020-02-08 01:00:00 13.1 6 Norte 9 Norte 0 1024.2 0.5 90
2020-02-08 00:00:00 13.2 5 Nordeste 10 Norte 0 1024.1 0.7 90
2020-02-07 23:00:00 12.8 5 Nordeste 8 Nordeste 0 1023.9 0.6 91
2020-02-07 22:00:00 12.6 3 Norte 7 Norte 0 1023.7 1 92
2020-02-07 21:00:00 13.7 2 Norte 13 Oeste 0 1023.4 0.8 87
2020-02-07 20:00:00 14.9 6 Oeste 23 Sudoeste 0 1023.3 0.8 81
2020-02-07 19:00:00 14.8 6 Sudoeste 18 Oeste 0 1022.7 0.4 80
2020-02-07 18:00:00 15.1 10 Sudoeste 20 Sudoeste 0 1022.6 0.2 77
2020-02-07 17:00:00 15.3 8 Sudoeste 18 Sudoeste 0 1022.5 -0.6 77
2020-02-07 16:00:00 15.2 9 Sudoeste 19 Sudoeste 0 1022.3 -1.9 77
2020-02-07 15:00:00 15.6 10 Sudoeste 17 Sudoeste 0 1022.4 -2.2 74
2020-02-07 14:00:00 15.5 7 Sudoeste 15 Sudoeste 0 1023.1 -1.6 75
2020-02-07 13:00:00 15.2 7 Sur 14 Sur 0 1024.2 -0.1 75
2020-02-07 12:00:00 16.3 5 Sudeste 9 Sudeste 0 1024.6 0.9 73
2020-02-07 11:00:00 15.1 2 Este 5 Este 0 1024.7 1.7 81
2020-02-07 10:00:00 13.5 0 Calma 5 Noroeste 0 1024.3 1.4 87
2020-02-07 09:00:00 13.2 2 Noroeste 5 Nordeste 0 1023.7 0.8 86
2020-02-07 08:00:00 12.8 3 Nordeste 6 Nordeste 0 1023 0 88
2020-02-07 07:00:00 12.3 2 Norte 6 Nordeste 0 1022.9 0 88
2020-02-07 06:00:00 12.2 4 Nordeste 6 Nordeste 0 1022.9 -0.5 88
2020-02-07 05:00:00 11.6 2 Nordeste 6 Nordeste 0 1023 -0.3 89
2020-02-07 04:00:00 11.2 4 Nordeste 9 Nordeste 0 1022.9 -1 89
2020-02-07 03:00:00 10.8 4 Norte 8 Nordeste 0 1023.4 -0.6 89
2020-02-07 02:00:00 11.5 5 Nordeste 9 Nordeste 0 1023.3 -0.4 85
2020-02-07 01:00:00 12.3 4 Nordeste 10 Este 0 1023.9 0.5 83
2020-02-07 00:00:00 13.5 6 Este 17 Este 0 1024 0.8 77
2020-02-06 23:00:00 14.2 6 Este 12 Este 0 1023.7 0.6 76
2020-02-06 22:00:00 14.2 2 Nordeste 11 Sudeste 0 1023.4 0.5 80
2020-02-06 21:00:00 14.5 6 Este 13 Sudeste 0 1023.2 0.6 77
2020-02-06 20:00:00 14.8 8 Sudeste 16 Sudeste 0 1023.1 1.1 80
2020-02-06 19:00:00 14.9 11 Sudeste 19 Este 0 1022.9 0.6 77
2020-02-06 18:00:00 15.4 15 Sudeste 24 Este 0 1022.6 -0.2 73
2020-02-06 17:00:00 15.8 18 Sudeste 29 Sudeste 0 1022 -1.4 72
2020-02-06 16:00:00 16 20 Sudeste 28 Sudeste 0 1022.3 -2 72
2020-02-06 15:00:00 16.1 21 Sudeste 30 Sudeste 0 1022.8 -- 69
2020-02-06 14:00:00 16.1 22 Sudeste 29 Sudeste 0 1023.4 -1.6 66
2020-02-06 13:00:00 16.3 21 Sudeste 28 Sudeste 0 1024.3 -0.3 64
2020-02-06 12:00:00 7.3 13 Este -- -- 0 -- -- --
2020-02-06 11:00:00 16.9 10 Sudeste 15 Este 0 1025 1 60
2020-02-06 10:00:00 16 5 Este 10 Este 0 1024.6 0.9 71
2020-02-06 09:00:00 12.8 0 Calma 9 Nordeste 0 1024.6 0.7 86
2020-02-06 08:00:00 11.2 4 Nordeste 9 Nordeste 0 1024 0 88
2020-02-06 07:00:00 12.6 3 Nordeste 18 Este 0 1023.7 -0.5 81
2020-02-06 06:00:00 13.6 13 Este 19 Este 0 1023.9 -0.4 77
2020-02-06 05:00:00 13.3 4 Nordeste 26 Este 0 1024 -0.3 77
2020-02-06 04:00:00 14 15 Este 23 Este 0 1024.2 -0.8 76
2020-02-06 03:00:00 13.8 8 Este 23 Este 0 1024.3 -1 77
2020-02-06 02:00:00 13.7 10 Este 18 Este 0 1024.3 -1.2 83
2020-02-06 01:00:00 14 8 Este 18 Este 0 1025 -0.4 77
2020-02-06 00:00:00 14.2 8 Este 24 Este 0 1025.3 0.4 77
2020-02-05 23:00:00 14.3 16 Este 22 Este 0 1025.5 0.9 80
2020-02-05 22:00:00 14.3 4 Este 15 Este 0 1025.4 0.9 80
2020-02-05 21:00:00 14.1 6 Este 16 Este 0 1024.9 0.5 81
2020-02-05 20:00:00 14.8 13 Este 30 Sudeste 0 1024.6 0.4 77
2020-02-05 19:00:00 15.2 21 Este 34 Este 0 1024.5 0.2 77
2020-02-05 18:00:00 15.5 18 Este 35 Este 0 1024.4 0.1 76
2020-02-05 17:00:00 16.4 19 Este 37 Este 0 1024.2 -0.8 73
2020-02-05 16:00:00 17.2 20 Este 42 Este 0 1024.3 -1.2 69
2020-02-05 15:00:00 17.2 26 Este 43 Este 0 1024.3 -1.5 70
2020-02-05 14:00:00 17.4 28 Este 44 Este 0 1025 -1.1 67
2020-02-05 13:00:00 17.1 27 Este 39 Este 0 1025.5 -0.2 69
2020-02-05 12:00:00 19.2 2 Sudeste 16 Este 0 1025.8 0.6 60
2020-02-05 11:00:00 16.5 4 Sudoeste 7 Sur 0 1026.1 1.3 77
2020-02-05 10:00:00 12.3 0 Calma 5 Norte 0 1025.7 1.5 99
2020-02-05 09:00:00 9.6 3 Noroeste 10 Norte 0 1025.2 1.3 99
2020-02-05 08:00:00 9.4 5 Noroeste 10 Noroeste 0 1024.8 1.2 99
2020-02-05 07:00:00 10 3 Noroeste 7 Oeste 0 1024.2 0.9 99
2020-02-05 06:00:00 10.6 0 Calma 6 Sur 0 1023.9 0.6 99
2020-02-05 05:00:00 10.8 0 Calma 8 Sur 0 1023.6 0.3 99
2020-02-05 04:00:00 11.1 0 Calma 10 Noroeste 0 1023.3 0 99
2020-02-05 03:00:00 11.3 0 Calma 9 Nordeste 0 1023.3 0.1 99
2020-02-05 02:00:00 11.5 3 Sudoeste 9 Nordeste 0 1023.3 0.2 99
2020-02-05 01:00:00 11.6 4 Nordeste 9 Nordeste 0 1023.3 -0.1 99
2020-02-05 00:00:00 11.8 0 Calma 6 Este 0 1023.2 0 99
2020-02-04 23:00:00 11.9 0 Calma 9 Oeste 0 1023.1 -0.5 99
2020-02-04 22:00:00 11.9 4 Oeste 12 Oeste 0 1023.4 0.1 99
2020-02-04 21:00:00 11.9 2 Oeste 10 Sudoeste 0 1023.2 -0.1 99
2020-02-04 20:00:00 12.1 3 Sudoeste 7 Sudoeste 0 1023.6 0.2 99
2020-02-04 19:00:00 12.6 0 Calma 7 Oeste 0 1023.3 -0.5 99
2020-02-04 18:00:00 12.8 4 Sudoeste 12 Sur 0 1023.3 -1.2 98
2020-02-04 12:00:00 11.6 2 Sudoeste 9 Sur 0 1026.9 0.4 99
2020-02-04 11:00:00 11.4 3 Sudoeste 7 Oeste 0 1026.9 0.8 99
2020-02-04 10:00:00 11 2 Oeste 5 Oeste 0 1027.1 1.1 99
2020-02-04 09:00:00 10.5 3 Noroeste 7 Norte 0 1026.5 0.6 99
2020-02-04 08:00:00 9.7 4 Norte 8 Norte 0 1026.1 0 99
2020-02-04 07:00:00 9.2 0 Calma 5 Norte 0 1026 -0.8 99
2020-02-04 06:00:00 9.9 0 Calma 7 Oeste 0.1 1025.9 -1.1 99
2020-02-04 05:00:00 10 0 Calma 7 Norte 0 1026.1 -1.5 99
2020-02-04 04:00:00 11.5 0 Calma 5 Este 0 1026.8 -0.6 99
2020-02-04 03:00:00 11.6 4 Nordeste 8 Nordeste 0 1027 -0.8 99
2020-02-04 02:00:00 11.5 5 Nordeste 9 Nordeste 0 1027.6 -0.3 99
2020-02-04 01:00:00 11.4 3 Noroeste 8 Noroeste 0 1027.4 -0.1 99
2020-02-04 00:00:00 13.7 4 Oeste 8 Oeste 0 1027.8 0.3 97
2020-02-03 23:00:00 13.2 0 Calma 5 Norte 0 1027.9 0.7 91
2020-02-03 22:00:00 13.7 0 Calma 5 Oeste 0 1027.5 1.2 90
2020-02-03 21:00:00 14.7 0 Calma 4 Sudeste 0 1027.5 1.4 87
2020-02-03 20:00:00 15.4 2 Nordeste 6 Noroeste 0 1027.2 0.8 84
2020-02-03 19:00:00 16.7 2 Noroeste 12 Oeste 0 1026.3 -0.2 77
2020-02-03 18:00:00 21.5 2 Sur 9 Sudoeste 0 1026.1 -1 56
2020-02-03 17:00:00 20.2 5 Sudoeste 12 Sudoeste 0 1026.4 -1.4 60
2020-02-03 16:00:00 20.5 6 Sudoeste 12 Sudoeste 0 1026.5 -1.5 64
2020-02-03 15:00:00 19.3 6 Sudoeste 15 Sudoeste 0 1027.1 -1.1 68
2020-02-03 14:00:00 18.6 9 Sudoeste 15 Sur 0 1027.8 -0.8 71
2020-02-03 13:00:00 19.6 7 Sudoeste 12 Sudoeste 0 1028 -0.6 63
2020-02-03 12:00:00 22.6 3 Sur 6 Sur 0 1028.2 0 51
2020-02-03 11:00:00 23.4 0 Calma 4 Sudoeste 0 1028.6 0.6 49
2020-02-03 10:00:00 16.8 3 Sudoeste 4 Sudoeste 0 1028.6 1 65
2020-02-03 09:00:00 14.4 3 Nordeste 6 Noroeste 0 1028.2 0.8 74
2020-02-03 08:00:00 12 3 Norte 5 Nordeste 0 1028 0.8 82
2020-02-03 07:00:00 11.7 0 Calma 8 Norte 0 1027.6 0.2 85
2020-02-03 06:00:00 13.3 5 Noroeste 7 Noroeste 0 1027.4 0.1 81
2020-02-03 05:00:00 12.2 2 Sudeste 8 Nordeste 0 1027.2 -0.1 82
2020-02-03 04:00:00 12.1 3 Nordeste 6 Norte 0 1027.4 -0.3 86
2020-02-03 03:00:00 12.6 2 Este 6 Norte 0 1027.3 -0.6 88
2020-02-03 02:00:00 13.6 4 Norte 5 Norte 0 1027.3 -0.5 89
2020-02-03 01:00:00 13.3 0 Calma 7 Norte 0 1027.7 0 89
2020-02-03 00:00:00 13.2 3 Nordeste 5 Nordeste 0 1027.9 0.4 93
2020-02-02 23:00:00 13.3 0 Calma 5 Norte 0 1027.8 0.4 94
2020-02-02 22:00:00 13.7 6 Norte 8 Nordeste 0 1027.7 0.4 94
2020-02-02 21:00:00 14.3 2 Nordeste 4 Nordeste 0 1027.5 0.4 93
2020-02-02 20:00:00 15.2 0 Calma 3 Nordeste 0 1027.4 0.3 88
2020-02-02 19:00:00 15.9 0 Calma 5 Sur 0 1027.3 0.3 81
2020-02-02 18:00:00 19.2 2 Sur 8 Sur 0 1027.1 0 74
2020-02-02 17:00:00 18.3 4 Sudoeste 11 Sudoeste 0 1027.1 -0.7 80
2020-02-02 16:00:00 17.1 7 Sur 13 Sur 0 1027 -1.3 83
2020-02-02 15:00:00 19.3 6 Sur 11 Sur 0 1027.1 -1.4 77
2020-02-02 14:00:00 19.2 5 Sur 9 Sur 0 1027.8 -0.8 74
2020-02-02 13:00:00 18.4 6 Sur 10 Sur 0 1028.3 0 74
2020-02-02 12:00:00 20.3 3 Sur 6 Sur 0 1028.5 0.7 60
2020-02-02 11:00:00 21.8 3 Sur 4 Sur 0 1028.6 1.5 55
2020-02-02 10:00:00 19.5 0 Calma 5 Nordeste 0 1028.3 1.8 63
2020-02-02 09:00:00 14.5 2 Nordeste 6 Norte 0 1027.8 2 83
2020-02-02 08:00:00 12 3 Noroeste 5 Noroeste 0 1027.1 1.2 91
2020-02-02 07:00:00 11.8 2 Noroeste 7 Noroeste 0 1026.5 0.6 89
2020-02-02 06:00:00 13.7 4 Norte 6 Norte 0 1025.8 -0.2 89
2020-02-02 05:00:00 12.5 0 Calma 5 Nordeste 0 1025.9 0.2 89
2020-02-02 04:00:00 13.4 5 Norte 8 Norte 0 1025.9 0 90
2020-02-02 03:00:00 13.1 2 Este 8 Norte 0 1026 0.3 93
2020-02-02 02:00:00 13.5 4 Noroeste 6 Norte 0 1025.7 0 94
2020-02-02 01:00:00 13.2 0 Calma 8 Norte 0 1025.9 0.6 95
2020-02-02 00:00:00 13.6 4 Noroeste 9 Norte 0 1025.7 0.9 95
2020-02-01 23:00:00 13.1 4 Nordeste 9 Norte 0 1025.7 1.6 99
2020-02-01 22:00:00 14.4 2 Norte 8 Noroeste 0 1025.3 1.4 99
2020-02-01 21:00:00 14.7 4 Noroeste 11 Oeste 0 1024.8 1.4 96
2020-02-01 20:00:00 15.7 0 Calma 9 Sudeste 0 1024.1 0.7 95
2020-02-01 19:00:00 16.3 6 Este 14 Sudeste 0 1023.9 0.3 94
2020-02-01 18:00:00 18.8 5 Sudeste 11 Sudeste 0 1023.4 0.2 81
2020-02-01 17:00:00 19.9 6 Sudeste 10 Sur 0 1023.4 -0.4 64
2020-02-01 16:00:00 20.7 4 Sudeste 9 Sudeste 0 1023.6 -0.9 58
2020-02-01 15:00:00 19.7 5 Sur 11 Sudoeste 0 1023.2 -1.2 64
2020-02-01 14:00:00 19.4 5 Sur 13 Sudoeste 0 1023.8 -0.3 67
2020-02-01 13:00:00 18.5 8 Sudoeste 14 Sudoeste 0 1024.5 1 76
2020-02-01 12:00:00 18 5 Sur 11 Sur 0 1024.4 1.4 73
2020-02-01 11:00:00 18.8 4 Sudeste 12 Sur 0 1024.1 1.6 75
2020-02-01 10:00:00 15.1 6 Sur 10 Sur 0 1023.5 1.4 88
2020-02-01 09:00:00 15.6 4 Sudeste 20 Norte 0 1023 1.3 77
2020-02-01 08:00:00 16.5 9 Norte 20 Norte 0 1022.5 1 73
2020-02-01 07:00:00 13.1 4 Este 10 Este 0 1022.1 0.3 91
2020-02-01 06:00:00 13.4 3 Sudoeste 8 Sudoeste 0 1021.7 -0.6 89
2020-02-01 05:00:00 12.5 0 Calma 9 Norte 0 1021.5 -0.8 85
2020-02-01 04:00:00 12.8 4 Nordeste 10 Norte 0 1021.8 -0.6 89
2020-02-01 03:00:00 12.6 3 Nordeste 49 Norte 0 1022.3 -0.2 89
2020-02-01 02:00:00 14.1 3 Sudoeste 7 Oeste 0 1022.3 -0.4 89
2020-02-01 01:00:00 13 3 Noroeste 7 Norte 0 1022.4 -0.3 84
2020-02-01 00:00:00 13.4 3 Nordeste 9 Norte 0 1022.5 0.2 85
2020-01-31 23:00:00 13.8 3 Norte 5 Nordeste 0 1022.7 0.6 83
2020-01-31 22:00:00 14.1 3 Oeste 7 Oeste 0 1022.7 1 83
2020-01-31 21:00:00 13.9 3 Noroeste 6 Norte 0 1022.3 0.7 85
2020-01-31 20:00:00 15.3 0 Calma 4 Este 0 1022.1 0.7 77
2020-01-31 19:00:00 16.1 0 Calma 4 Sur 0 1021.7 0.4 73
2020-01-31 18:00:00 17.3 0 Calma 7 Sur 0 1021.6 -0.3 70
2020-01-31 17:00:00 17.3 5 Sudoeste 9 Sur 0 1021.4 -1.2 70
2020-01-31 16:00:00 20.1 3 Sur 11 Sudoeste 0 1021.3 -1.6 61
2020-01-31 15:00:00 17.5 8 Sudoeste 14 Sur 0 1021.9 -1.6 75
2020-01-31 14:00:00 16.8 5 Sur 19 Sudeste 0 1022.6 -1.2 82
2020-01-31 13:00:00 17.1 14 Sudeste 19 Sur 0 1022.9 -0.7 77
2020-01-31 12:00:00 17.4 13 Sudeste 23 Sudeste 0 1023.5 0.6 71
2020-01-31 11:00:00 17.3 9 Sudeste 18 Sudeste 0 1023.8 1.8 66
2020-01-31 10:00:00 20.4 0 Calma 14 Sudeste 0 1023.6 2.1 59
2020-01-31 09:00:00 15.5 2 Norte 16 Oeste 0 1022.9 1.6 61
2020-01-31 08:00:00 15.9 6 Oeste 17 Oeste 0 1022 0.5 56
2020-01-31 07:00:00 17 4 Sudoeste 14 Sudoeste 0 1021.5 0.2 53
2020-01-31 06:00:00 17 7 Oeste 19 Oeste 0 1021.3 -0.2 51
2020-01-31 05:00:00 17.8 6 Sudoeste 21 Sudoeste 0 1021.5 -0.5 50
2020-01-31 04:00:00 17.4 16 Oeste 24 Oeste 0 1021.3 -0.9 49
2020-01-31 03:00:00 16.8 9 Oeste 18 Sudoeste 0 1021.5 -1 50
2020-01-31 02:00:00 17.1 8 Oeste 20 Noroeste 0 1022 -0.4 46
2020-01-31 01:00:00 17.1 10 Oeste 19 Oeste 0 1022.2 -0.1 49
2020-01-31 00:00:00 16 6 Oeste 17 Oeste 0 1022.5 0.4 60
2020-01-30 23:00:00 17.8 6 Oeste 25 Noroeste 0 1022.4 1.1 43
2020-01-30 22:00:00 20.7 17 Noroeste 32 Oeste 0 1022.3 1 31
2020-01-30 21:00:00 20.2 19 Oeste 35 Oeste 0 1022.1 1 33
2020-01-30 20:00:00 20.3 21 Oeste 33 Oeste 0 1021.3 0.5 36
2020-01-30 19:00:00 17.1 13 Oeste 28 Sudoeste 0 1021.3 0.3 67
2020-01-30 18:00:00 17.7 14 Oeste 33 Sudoeste 0 1021.1 -0.2 64
2020-01-30 17:00:00 18.1 16 Oeste 39 Oeste 0 1020.8 -1.3 64
2020-01-30 16:00:00 17.9 16 Oeste 35 Sudoeste 0 1021 -2.2 64
2020-01-30 15:00:00 18 15 Oeste 31 Oeste 0 1021.3 -2.6 64
2020-01-30 14:00:00 17.1 15 Oeste 35 Oeste 0 1022.1 -1.7 64
2020-01-30 13:00:00 17.2 9 Oeste 20 Sudoeste 0 1023.2 -0.6 57
2020-01-30 12:00:00 16.5 6 Oeste 16 Oeste 0 1023.9 0.8 70
2020-01-30 11:00:00 17.4 3 Sudoeste 8 Sudoeste 0 1023.8 1.1 60
2020-01-30 10:00:00 15.9 0 Calma 9 Nordeste 0 1023.8 1.4 75
2020-01-30 09:00:00 10.3 3 Sudoeste 8 Norte 0 1023.1 1.2 94
2020-01-30 08:00:00 9.9 0 Calma 9 Norte 0 1022.7 0.3 98
2020-01-30 07:00:00 10 3 Norte 9 Norte 0 1022.4 -0.2 99
2020-01-30 06:00:00 10.2 0 Calma 8 Nordeste 0 1021.9 -0.7 99
2020-01-30 05:00:00 10.6 4 Nordeste -- -- 0 1022.4 -0.6 99
2020-01-30 04:00:00 10 4 Norte 6 Norte 0 1022.6 -0.8 99
2020-01-30 03:00:00 10.6 3 Nordeste 7 Nordeste 0 1022.6 -0.8 99
2020-01-30 02:00:00 10.8 0 Calma 4 Nordeste 0 1023 -0.4 98
2020-01-30 01:00:00 10.6 2 Nordeste 7 Nordeste 0 1023.4 0.1 98
2020-01-30 00:00:00 10.9 0 Calma 6 Norte 0 1023.4 0.2 98
2020-01-29 23:00:00 11.6 4 Norte 7 Nordeste 0 1023.4 0.7 97
2020-01-29 22:00:00 12.3 2 Nordeste 7 Norte 0 1023.3 0.8 98
2020-01-29 21:00:00 13.7 0 Calma 6 Sudoeste 0 1023.2 1.3 98
2020-01-29 20:00:00 14.4 0 Calma 6 Nordeste 0 1022.7 0.6 95
2020-01-29 19:00:00 15.1 3 Nordeste 14 Sudoeste 0 1022.5 1 94
2020-01-29 18:00:00 16.9 2 Sudeste 8 Sudoeste 0 1021.9 0.1 81
2020-01-29 17:00:00 16 5 Sur 12 Sudeste 0 1022.1 -0.5 83
2020-01-29 16:00:00 17.3 8 Sudeste 11 Sudeste 0 1021.5 -2 80
2020-01-29 15:00:00 19.5 4 Sudeste 9 Sur 0 1021.8 -2.5 68
2020-01-29 14:00:00 17.3 6 Sur 9 Sur 0 1022.6 -1.4 75
2020-01-29 13:00:00 17.2 5 Sudeste 7 Sudeste 0 1023.5 -0.3 77
2020-01-29 12:00:00 15.6 4 Sudeste 10 Sur 0 1024.3 0.7 91
2020-01-29 11:00:00 14.8 3 Sur 5 Sudeste 0 1024 1.1 88
2020-01-29 10:00:00 14.3 0 Calma 6 Norte 0 1023.8 1.8 92
2020-01-29 09:00:00 10.5 3 Noroeste 6 Norte 0 1023.6 1.7 99
2020-01-29 08:00:00 9.8 3 Norte 5 Norte 0 1022.9 0.8 99
2020-01-29 07:00:00 10.1 2 Nordeste 9 Nordeste 0 1022 -0.4 99
2020-01-29 06:00:00 10 0 Calma 5 Norte 0 1021.9 -0.6 99
2020-01-29 05:00:00 10.9 4 Norte 8 Norte 0 1022.1 -0.5 99
2020-01-29 04:00:00 10 4 Norte 9 Norte 0 1022.4 -0.4 99
2020-01-29 03:00:00 11.1 0 Calma 8 Norte 0 1022.5 -0.4 98
2020-01-29 02:00:00 12.5 3 Este 9 Sudoeste 0 1022.6 -0.1 96
2020-01-29 01:00:00 13.1 3 Sudoeste 10 Sudoeste 0 1022.8 0.3 96
2020-01-29 00:00:00 13.9 4 Oeste 10 Sur 0 1022.9 0.4 95
2020-01-28 23:00:00 14.8 6 Sudeste 10 Sudeste 0 1022.7 0 93
2020-01-28 22:00:00 13.2 2 Sur 7 Norte 0 1022.5 0.1 95
2020-01-28 21:00:00 12.8 0 Calma 8 Nordeste 0 1022.5 0.7 94
2020-01-28 20:00:00 13.8 3 Nordeste 7 Norte 0 1022.7 1 91
2020-01-28 19:00:00 14.9 3 Norte 11 Sudoeste 0 1022.4 0.4 88
2020-01-28 18:00:00 15.7 6 Oeste 16 Oeste 0 1021.8 -0.2 83
2020-01-28 17:00:00 16.4 7 Oeste 18 Sudoeste 0 1021.7 -1.2 80
2020-01-28 16:00:00 16.8 11 Oeste 24 Oeste 0 1022 -2.1 77
2020-01-28 15:00:00 17 6 Sur 12 Sudoeste 0 1022 -2.3 73
2020-01-28 14:00:00 19.4 3 Este 10 Sudeste 0 1022.9 -1.5 68
2020-01-28 13:00:00 17.6 6 Sudeste 13 Sudeste 0 1024.1 -0.1 71
2020-01-28 12:00:00 16.7 10 Sudeste 15 Sudeste 0 1024.3 1 71
2020-01-28 11:00:00 15.9 13 Sudeste 17 Sur 0 1024.4 1.6 73
2020-01-28 10:00:00 16 9 Sudeste 13 Sudeste 0 1024.2 1.8 68
2020-01-28 09:00:00 14.1 5 Noroeste 14 Oeste 0 1023.3 1 66
2020-01-28 08:00:00 13.4 6 Oeste 18 Noroeste 0 1022.8 0.8 67
2020-01-28 07:00:00 14.5 6 Noroeste 21 Noroeste 0 1022.4 -0.2 64
2020-01-28 06:00:00 14.4 8 Noroeste 30 Norte 0 1022.3 -0.6 64
2020-01-28 05:00:00 13.9 7 Noroeste 25 Norte 0 1022 -1.2 65
2020-01-28 04:00:00 14.4 9 Norte 23 Norte 0 1022.6 -0.6 64
2020-01-28 03:00:00 13.7 5 Noroeste 14 Noroeste 0 1022.9 -0.2 67
2020-01-28 02:00:00 13.1 4 Oeste 15 Oeste 0 1023.2 -0.1 69
2020-01-28 01:00:00 14.1 8 Oeste 17 Oeste 0 1023.2 0 66
2020-01-28 00:00:00 11.9 5 Oeste 10 Sudoeste 0 1023.1 -0.2 76
2020-01-27 23:00:00 12.1 2 Sur 9 Nordeste 0 1023.3 0.3 85
2020-01-27 22:00:00 11.6 0 Calma 14 Oeste 0 1023.2 0.4 84
2020-01-27 21:00:00 11.9 0 Calma 9 Norte 0 1023.3 1 83
2020-01-27 20:00:00 12.7 4 Norte 18 Oeste 0 1023 0.6 77
2020-01-27 19:00:00 14.2 11 Oeste 23 Oeste 0 1022.8 0.3 76
2020-01-27 18:00:00 14.7 9 Oeste 28 Oeste 0 1022.3 -0.6 71
2020-01-27 17:00:00 15.6 11 Sudoeste 50 Oeste 0 1022.4 -1.4 62
2020-01-27 16:00:00 15.3 14 Sudoeste 27 Oeste 0 1022.5 -2.2 63
2020-01-27 15:00:00 15.4 12 Sudoeste 23 Oeste 0 1022.9 -2.3 61
2020-01-27 14:00:00 15.6 8 Sudoeste 18 Sur 0 1023.8 -1.6 61
2020-01-27 13:00:00 15.7 8 Sudoeste 19 Oeste 0 1024.7 -0.8 60
2020-01-27 12:00:00 16.3 6 Oeste 16 Oeste 0 1025.2 0.5 49
2020-01-27 11:00:00 17.5 3 Noroeste 9 Noroeste 0 1025.4 1.1 49
2020-01-27 10:00:00 17.2 0 Calma 7 Oeste 0 1025.5 1.5 53
2020-01-27 09:00:00 11.5 0 Calma 9 Noroeste 0 1024.7 1.2 61
2020-01-27 08:00:00 11.7 3 Norte 13 Norte 0 1024.3 0.6 59
2020-01-27 07:00:00 11.1 3 Oeste 9 Norte 0 1024 0.2 62
2020-01-27 06:00:00 12.1 3 Nordeste 18 Norte 0 1023.5 -0.2 59
2020-01-27 05:00:00 12 7 Nordeste 23 Norte 0 1023.7 -0.4 59
2020-01-27 04:00:00 12.9 9 Norte 33 Norte 0 1023.8 -0.4 58
2020-01-27 03:00:00 13.4 19 Norte 38 Norte 0 1023.7 -0.6 56
2020-01-27 02:00:00 13.2 17 Norte 37 Norte 0 1024.1 0 56
2020-01-27 01:00:00 13.5 17 Norte 41 Norte 0 1024.2 0.4 56
2020-01-27 00:00:00 13.8 20 Norte 35 Norte 0 1024.3 0.9 56
2020-01-26 23:00:00 14 15 Norte 32 Norte 0 1024.1 1.3 58
2020-01-26 22:00:00 14.1 8 Norte 23 Norte 0 1023.8 1.9 57
2020-01-26 21:00:00 14.1 7 Noroeste 14 Noroeste 0 1023.4 1.9 58
2020-01-26 20:00:00 14.1 5 Noroeste 14 Noroeste 0 1022.8 1.7 58
2020-01-26 19:00:00 15.5 8 Noroeste -- -- 0 1021.9 1 54
2020-01-26 18:00:00 16.4 8 Oeste 24 Sudoeste 0 1021.5 0.3 61
2020-01-26 17:00:00 19.1 6 Noroeste 24 Oeste 0 1021.1 -0.2 46
2020-01-26 16:00:00 17.4 12 Oeste 38 Sudoeste 0 1020.9 -1.3 58
2020-01-26 15:00:00 16.1 18 Sudoeste 38 Oeste 0 1021.2 -1.1 67
2020-01-26 14:00:00 16.9 16 Oeste 32 Sudoeste 0 1021.3 -0.7 59
2020-01-26 13:00:00 16.9 12 Oeste 39 Noroeste 0 1022.2 0.8 56
2020-01-26 12:00:00 17.1 18 Noroeste 44 Noroeste 0 1022.3 1.3 45
2020-01-26 11:00:00 16.1 16 Noroeste 31 Noroeste 0 1022 2.3 53
2020-01-26 10:00:00 15.5 3 Noroeste 19 Noroeste 0 1021.4 1.7 64
2020-01-26 09:00:00 12.1 10 Noroeste 24 Oeste 0 1021 1.7 72
2020-01-26 08:00:00 12.5 16 Noroeste 23 Oeste 0 1019.7 0.4 70
2020-01-26 07:00:00 10.9 9 Noroeste 14 Noroeste 0 1019.7 0.6 84
2020-01-26 06:00:00 9.9 4 Noroeste 11 Norte 0 1019.3 0.3 96
2020-01-26 05:00:00 10.1 6 Oeste 12 Oeste 0 1019.3 0.2 96
2020-01-26 04:00:00 9.9 2 Norte 5 Noroeste 0 1019.1 0.1 99
2020-01-26 03:00:00 9.8 0 Calma 6 Norte 0 1019 -0.2 99
2020-01-26 02:00:00 10.3 4 Norte 6 Norte 0 1019.1 0.1 99
2020-01-26 01:00:00 11.1 0 Calma 6 Norte 0 1019 0.5 96
2020-01-26 00:00:00 11.4 0 Calma 10 Noroeste 0.2 1019.2 1 94
2020-01-25 23:00:00 12.5 6 Oeste 15 Oeste 0.1 1019 1.5 89
2020-01-25 22:00:00 11.7 3 Noroeste 9 Noroeste 0.1 1018.5 1.5 95
2020-01-25 21:00:00 11.9 8 Oeste 18 Oeste 0.2 1018.2 1.6 93
2020-01-25 20:00:00 11.8 2 Norte 5 Norte 0 1017.5 1 93
2020-01-25 19:00:00 13.3 2 Este 4 Sudoeste 0 1017 0.8 86
2020-01-25 18:00:00 13.8 0 Calma 5 Oeste 0 1016.6 0.8 82
2020-01-25 17:00:00 14.2 0 Calma 9 Noroeste 0 1016.5 -0.1 83
2020-01-25 16:00:00 12.9 7 Noroeste 18 Noroeste 0.2 1016.2 -1.6 89
2020-01-25 15:00:00 13.9 2 Sur 15 Sudeste 0 1015.8 -2.7 80
2020-01-25 14:00:00 14.3 3 Nordeste 16 Norte 0 1016.6 -1.9 91
2020-01-25 13:00:00 10.2 6 Nordeste 15 Norte 2.9 1017.8 0.1 98
2020-01-25 12:00:00 10.1 4 Noroeste 29 Norte 7.2 1018.5 2.5 95
2020-01-25 11:00:00 10.1 9 Noroeste 27 Noroeste 4.2 1018.5 2.9 95
2020-01-25 10:00:00 13.7 8 Sudeste 30 Sudeste 0.3 1017.7 -- 85
2020-01-25 09:00:00 13.4 3 Norte 20 Norte 0 1016 -- 77
2020-01-25 08:00:00 13.2 4 Sudoeste 12 Sur 0 1015.6 -- 85
2020-01-25 07:00:00 -- -- -- -- -- -- -- -- --
2020-01-25 06:00:00 -- -- -- -- -- -- -- -- --
2020-01-25 05:00:00 -- -- -- -- -- -- -- -- --
2020-01-25 04:00:00 -- -- -- -- -- -- -- -- --
2020-01-25 03:00:00 -- -- -- -- -- -- -- -- --
2020-01-25 02:00:00 -- -- -- -- -- -- -- -- --
2020-01-25 01:00:00 -- -- -- -- -- -- -- -- --
2020-01-25 00:00:00 13.5 -- -- -- -- 0 -- -- 84
2020-01-24 23:00:00 13.1 4 Norte 10 Noroeste 0 1017.7 0.1 89
2020-01-24 22:00:00 13.4 4 Nordeste 17 Noroeste 0 1018.1 0.9 88
2020-01-24 21:00:00 13.5 4 Sudoeste 7 Sudoeste 0 1018.4 1.4 90
2020-01-24 20:00:00 14.1 4 Nordeste 14 Este 0 1017.6 0 86
2020-01-24 19:00:00 14.2 7 Este 20 Este 0 1017.2 -0.4 84
2020-01-24 18:00:00 14.4 14 Este 23 Sudeste 0 1017 -0.9 80
2020-01-24 17:00:00 14.7 18 Este 28 Sudeste 0 1017.6 -1.1 81
2020-01-24 16:00:00 15.6 23 Sudeste 30 Sudeste 0 1017.6 -2.1 69
2020-01-24 15:00:00 16.4 18 Sudeste 25 Este 0 1017.9 -1.9 69
2020-01-24 14:00:00 16.5 12 Sudeste 18 Sudeste 0 1018.7 -1.3 71
2020-01-24 13:00:00 16 14 Sudeste 21 Sudeste 0 1019.7 -0.1 76
2020-01-24 12:00:00 16.1 7 Sur 10 Sur 0 1019.8 0.5 61
2020-01-24 11:00:00 18.2 0 Calma 7 Norte 0 1020 1.1 67
2020-01-24 10:00:00 13.5 4 Este 11 Este 0 1019.8 1.1 76
2020-01-24 09:00:00 11.6 5 Nordeste 9 Nordeste 0 1019.3 0.9 83
2020-01-24 08:00:00 11.1 4 Nordeste 10 Norte 0 1018.9 0.1 88
2020-01-24 07:00:00 11.1 4 Nordeste 12 Este 0 1018.7 0.1 89
2020-01-24 06:00:00 11 4 Nordeste 11 Noroeste 1.9 1018.4 0.3 93
2020-01-24 05:00:00 11.6 0 Calma 11 Norte 0.1 1018.8 0.8 93
2020-01-24 04:00:00 12.5 9 Oeste 15 Noroeste 0.8 1018.6 1.2 88
2020-01-24 03:00:00 13.4 5 Noroeste 11 Este 0 1018.1 0.8 82
2020-01-24 02:00:00 13.6 7 Nordeste 18 Este 0 1018 0.8 80
2020-01-24 01:00:00 13.4 5 Noroeste 14 Sur 0 1017.4 0.4 75
2020-01-24 00:00:00 14.2 0 Calma 14 Este 0 1017.3 0 73
2020-01-23 23:00:00 14.5 2 Nordeste 16 Este 0 1017.2 0 69
2020-01-23 22:00:00 14 3 Oeste 9 Nordeste 0 1017 0.7 77
2020-01-23 21:00:00 14.2 5 Este 12 Nordeste 0 1017.3 1.3 77
2020-01-23 20:00:00 14.4 2 Nordeste 15 Este 0 1017.2 1.1 81
2020-01-23 19:00:00 14.6 8 Este 32 Este 0 1016.3 0.5 77
2020-01-23 18:00:00 14.9 16 Este 31 Este 0 1016 0.3 74
2020-01-23 17:00:00 16.2 19 Este 37 Este 0 1016.1 0.1 66
2020-01-23 16:00:00 16.3 22 Este 33 Este 0 1015.8 -0.8 68
2020-01-23 15:00:00 17.3 16 Este 33 Este 0 1015.7 -1.8 61
2020-01-23 14:00:00 17.1 20 Este 33 Este 0 1016 -1.4 60
2020-01-23 13:00:00 16.7 20 Este 36 Este 0 1016.6 -0.3 64
2020-01-23 12:00:00 15.8 20 Este 33 Este 0 1017.5 1.1 64
2020-01-23 11:00:00 15.9 15 Este 25 Este 0 1017.4 1.2 56
2020-01-23 10:00:00 15.1 3 Norte 6 Nordeste 0 1016.9 0.9 63
2020-01-23 09:00:00 12.3 2 Este 9 Norte 0 1016.4 0.7 76
2020-01-23 08:00:00 10.5 2 Noroeste 12 Nordeste 0 1016.2 0.3 85
2020-01-23 07:00:00 10.2 0 Calma 8 Nordeste 0 1016 -0.2 85
2020-01-23 06:00:00 11.2 4 Oeste 13 Nordeste 0 1015.7 -0.7 84
2020-01-23 05:00:00 12.1 5 Nordeste 24 Este 0 1015.9 -0.4 84
2020-01-23 04:00:00 12.4 12 Este 21 Este 0 1016.2 -0.3 83
2020-01-23 03:00:00 11.2 5 Nordeste 9 Este 0 1016.4 0 80
2020-01-23 02:00:00 11 4 Noroeste 11 Noroeste 0 1016.3 0 86
2020-01-23 01:00:00 9.8 2 Norte 7 Norte 0 1016.5 0.2 88
2020-01-23 00:00:00 9.7 4 Norte 10 Oeste 0 1016.4 0.4 89
2020-01-22 23:00:00 10.7 0 Calma 10 Nordeste 0 1016.3 0.4 89
2020-01-22 22:00:00 10.6 5 Noroeste 17 Norte 0 1016.3 1 89
2020-01-22 21:00:00 9.7 6 Norte 24 Nordeste 3.9 1016 1 97
2020-01-22 20:00:00 10.3 9 Nordeste 21 Nordeste 4.9 1015.9 1.3 99
2020-01-22 19:00:00 11.2 5 Noroeste 8 Norte 3.3 1015.3 1.6 98
2020-01-22 18:00:00 11.6 5 Norte 14 Este 2 1015 1.4 95
2020-01-22 17:00:00 13.1 9 Este 31 Este 2.1 1014.6 0.9 83
2020-01-22 16:00:00 13.8 22 Este 35 Este 0.8 1013.7 -0.7 75
2020-01-22 15:00:00 14.6 17 Este 28 Este 0 1013.6 -0.7 73
2020-01-22 14:00:00 13.8 4 Norte 25 Oeste 0 1013.7 -0.5 77
2020-01-22 13:00:00 13.7 13 Oeste 26 Este 0 1014.4 0.3 74
2020-01-22 12:00:00 14.8 17 Este 26 Este 0 1014.3 0.1 63
2020-01-22 11:00:00 15.3 11 Este 19 Sudeste 0 1014.2 0.3 58
2020-01-22 10:00:00 13.6 3 Oeste 17 Este 0 1014.1 0.9 66
2020-01-22 09:00:00 13.3 9 Este 21 Este 0 1014.2 1.2 66
2020-01-22 08:00:00 11.3 4 Nordeste 9 Este 0 1013.9 0.3 75
2020-01-22 07:00:00 9.2 5 Noroeste 10 Norte 0 1013.2 -0.9 86
2020-01-22 06:00:00 9.5 3 Nordeste 9 Norte 0 1013 -0.9 84
2020-01-22 05:00:00 10.1 5 Norte 13 Nordeste 0 1013.6 -0.7 84
2020-01-22 04:00:00 9.5 3 Nordeste 9 Norte 0 1014.1 -0.1 89
2020-01-22 03:00:00 9.4 4 Norte 11 Nordeste 0 1013.9 -0.9 90
2020-01-22 02:00:00 9.6 7 Nordeste 15 Norte 0 1014.3 -0.1 93
2020-01-22 01:00:00 9.1 8 Norte 21 Norte 2.8 1014.2 0.3 99
2020-01-22 00:00:00 9.5 5 Nordeste 10 Noroeste 4.9 1014.8 1.3 99